sensor_id;sensor_type;location;lat;lon;timestamp;P1;durP1;ratioP1;P2;durP2;ratioP2
16699;SDS011;8466;52.286;21.124;2022-08-19T00:02:11;175.38;;;162.60;;
16699;SDS011;8466;52.286;21.124;2022-08-19T00:04:39;381.95;;;353.52;;
16699;SDS011;8466;52.286;21.124;2022-08-19T00:07:09;26.05;;;23.98;;
16699;SDS011;8466;52.286;21.124;2022-08-19T00:09:39;26.60;;;24.17;;
16699;SDS011;8466;52.286;21.124;2022-08-19T00:12:08;27.48;;;24.88;;
16699;SDS011;8466;52.286;21.124;2022-08-19T00:14:37;27.13;;;24.75;;
16699;SDS011;8466;52.286;21.124;2022-08-19T00:17:08;27.15;;;25.05;;
16699;SDS011;8466;52.286;21.124;2022-08-19T00:19:37;25.80;;;23.75;;
16699;SDS011;8466;52.286;21.124;2022-08-19T00:22:07;28.05;;;25.77;;
16699;SDS011;8466;52.286;21.124;2022-08-19T00:24:36;28.15;;;25.85;;
16699;SDS011;8466;52.286;21.124;2022-08-19T00:27:16;26.13;;;23.70;;
16699;SDS011;8466;52.286;21.124;2022-08-19T00:29:52;27.27;;;25.02;;
16699;SDS011;8466;52.286;21.124;2022-08-19T00:32:20;27.83;;;25.63;;
16699;SDS011;8466;52.286;21.124;2022-08-19T00:34:49;29.00;;;26.60;;
16699;SDS011;8466;52.286;21.124;2022-08-19T00:37:20;27.75;;;25.55;;
16699;SDS011;8466;52.286;21.124;2022-08-19T00:39:51;29.73;;;27.52;;
16699;SDS011;8466;52.286;21.124;2022-08-19T00:42:20;27.80;;;25.60;;
16699;SDS011;8466;52.286;21.124;2022-08-19T00:44:50;28.65;;;26.45;;
16699;SDS011;8466;52.286;21.124;2022-08-19T00:47:18;29.27;;;27.13;;
16699;SDS011;8466;52.286;21.124;2022-08-19T00:49:48;31.48;;;28.95;;
16699;SDS011;8466;52.286;21.124;2022-08-19T00:52:20;26.75;;;24.35;;
16699;SDS011;8466;52.286;21.124;2022-08-19T00:54:52;29.52;;;27.45;;
16699;SDS011;8466;52.286;21.124;2022-08-19T00:57:23;28.27;;;25.90;;
16699;SDS011;8466;52.286;21.124;2022-08-19T00:59:56;29.52;;;27.20;;
16699;SDS011;8466;52.286;21.124;2022-08-19T01:02:29;26.92;;;24.88;;
16699;SDS011;8466;52.286;21.124;2022-08-19T01:05:00;26.73;;;24.67;;
16699;SDS011;8466;52.286;21.124;2022-08-19T01:07:32;28.15;;;25.83;;
16699;SDS011;8466;52.286;21.124;2022-08-19T01:10:06;28.20;;;26.10;;
16699;SDS011;8466;52.286;21.124;2022-08-19T01:12:38;30.35;;;28.13;;
16699;SDS011;8466;52.286;21.124;2022-08-19T01:15:09;31.75;;;29.45;;
16699;SDS011;8466;52.286;21.124;2022-08-19T01:17:39;30.67;;;28.45;;
16699;SDS011;8466;52.286;21.124;2022-08-19T01:20:09;33.13;;;30.58;;
16699;SDS011;8466;52.286;21.124;2022-08-19T01:22:43;31.77;;;29.33;;
16699;SDS011;8466;52.286;21.124;2022-08-19T01:25:14;30.42;;;28.02;;
16699;SDS011;8466;52.286;21.124;2022-08-19T01:27:47;30.40;;;28.27;;
16699;SDS011;8466;52.286;21.124;2022-08-19T01:30:20;32.25;;;30.05;;
16699;SDS011;8466;52.286;21.124;2022-08-19T01:32:51;36.03;;;33.42;;
16699;SDS011;8466;52.286;21.124;2022-08-19T01:35:20;32.67;;;30.33;;
16699;SDS011;8466;52.286;21.124;2022-08-19T01:37:53;36.03;;;33.28;;
16699;SDS011;8466;52.286;21.124;2022-08-19T01:40:25;34.42;;;31.95;;
16699;SDS011;8466;52.286;21.124;2022-08-19T01:42:57;37.58;;;34.67;;
16699;SDS011;8466;52.286;21.124;2022-08-19T01:45:27;36.47;;;33.85;;
16699;SDS011;8466;52.286;21.124;2022-08-19T01:47:58;39.80;;;36.90;;
16699;SDS011;8466;52.286;21.124;2022-08-19T01:50:28;41.97;;;39.25;;
16699;SDS011;8466;52.286;21.124;2022-08-19T01:52:59;37.75;;;35.08;;
16699;SDS011;8466;52.286;21.124;2022-08-19T01:55:33;41.15;;;38.47;;
16699;SDS011;8466;52.286;21.124;2022-08-19T01:58:07;39.95;;;37.30;;
16699;SDS011;8466;52.286;21.124;2022-08-19T02:00:38;37.08;;;34.50;;
16699;SDS011;8466;52.286;21.124;2022-08-19T02:03:07;34.28;;;31.25;;
16699;SDS011;8466;52.286;21.124;2022-08-19T02:05:39;35.85;;;33.28;;
16699;SDS011;8466;52.286;21.124;2022-08-19T02:08:24;32.92;;;30.40;;
16699;SDS011;8466;52.286;21.124;2022-08-19T02:11:19;30.40;;;28.20;;
16699;SDS011;8466;52.286;21.124;2022-08-19T02:13:49;29.60;;;27.38;;
16699;SDS011;8466;52.286;21.124;2022-08-19T02:16:19;32.90;;;30.20;;
16699;SDS011;8466;52.286;21.124;2022-08-19T02:18:49;30.77;;;28.40;;
16699;SDS011;8466;52.286;21.124;2022-08-19T02:21:22;28.42;;;26.20;;
16699;SDS011;8466;52.286;21.124;2022-08-19T02:23:54;29.30;;;27.30;;
16699;SDS011;8466;52.286;21.124;2022-08-19T02:26:23;28.63;;;26.25;;
16699;SDS011;8466;52.286;21.124;2022-08-19T02:28:53;33.13;;;30.67;;
16699;SDS011;8466;52.286;21.124;2022-08-19T02:31:25;31.80;;;29.33;;
16699;SDS011;8466;52.286;21.124;2022-08-19T02:34:02;28.88;;;26.17;;
16699;SDS011;8466;52.286;21.124;2022-08-19T02:36:35;30.25;;;27.92;;
16699;SDS011;8466;52.286;21.124;2022-08-19T02:39:16;31.40;;;28.98;;
16699;SDS011;8466;52.286;21.124;2022-08-19T02:41:44;31.63;;;28.90;;
16699;SDS011;8466;52.286;21.124;2022-08-19T02:44:13;36.33;;;33.80;;
16699;SDS011;8466;52.286;21.124;2022-08-19T02:46:57;34.45;;;31.73;;
16699;SDS011;8466;52.286;21.124;2022-08-19T02:49:25;34.50;;;31.75;;
16699;SDS011;8466;52.286;21.124;2022-08-19T02:51:59;35.92;;;33.17;;
16699;SDS011;8466;52.286;21.124;2022-08-19T02:54:30;55.30;;;50.50;;
16699;SDS011;8466;52.286;21.124;2022-08-19T02:56:58;58.40;;;53.70;;
16699;SDS011;8466;52.286;21.124;2022-08-19T02:59:29;61.05;;;56.33;;
16699;SDS011;8466;52.286;21.124;2022-08-19T03:01:58;61.97;;;57.40;;
16699;SDS011;8466;52.286;21.124;2022-08-19T03:04:26;43.90;;;40.50;;
16699;SDS011;8466;52.286;21.124;2022-08-19T03:06:56;42.33;;;39.35;;
16699;SDS011;8466;52.286;21.124;2022-08-19T03:09:38;40.58;;;37.67;;
16699;SDS011;8466;52.286;21.124;2022-08-19T03:12:08;42.15;;;39.13;;
16699;SDS011;8466;52.286;21.124;2022-08-19T03:14:37;43.33;;;40.15;;
16699;SDS011;8466;52.286;21.124;2022-08-19T03:17:06;57.13;;;52.72;;
16699;SDS011;8466;52.286;21.124;2022-08-19T03:19:35;53.75;;;49.35;;
16699;SDS011;8466;52.286;21.124;2022-08-19T03:22:04;57.72;;;52.90;;
16699;SDS011;8466;52.286;21.124;2022-08-19T03:24:34;47.42;;;43.83;;
16699;SDS011;8466;52.286;21.124;2022-08-19T03:27:06;369.00;;;345.30;;
16699;SDS011;8466;52.286;21.124;2022-08-19T03:29:36;63.33;;;58.92;;
16699;SDS011;8466;52.286;21.124;2022-08-19T03:32:08;45.33;;;42.17;;
16699;SDS011;8466;52.286;21.124;2022-08-19T03:34:57;42.00;;;39.08;;
16699;SDS011;8466;52.286;21.124;2022-08-19T03:37:26;44.72;;;41.35;;
16699;SDS011;8466;52.286;21.124;2022-08-19T03:39:55;40.25;;;37.47;;
16699;SDS011;8466;52.286;21.124;2022-08-19T03:42:26;37.85;;;35.30;;
16699;SDS011;8466;52.286;21.124;2022-08-19T03:45:14;43.78;;;40.45;;
16699;SDS011;8466;52.286;21.124;2022-08-19T03:47:43;47.30;;;43.75;;
16699;SDS011;8466;52.286;21.124;2022-08-19T03:50:12;43.38;;;40.17;;
16699;SDS011;8466;52.286;21.124;2022-08-19T03:52:40;48.10;;;44.75;;
16699;SDS011;8466;52.286;21.124;2022-08-19T03:55:12;45.10;;;42.13;;
16699;SDS011;8466;52.286;21.124;2022-08-19T03:57:42;45.70;;;42.42;;
16699;SDS011;8466;52.286;21.124;2022-08-19T04:00:12;42.83;;;39.65;;
16699;SDS011;8466;52.286;21.124;2022-08-19T04:02:42;40.33;;;37.40;;
16699;SDS011;8466;52.286;21.124;2022-08-19T04:05:26;40.90;;;38.05;;
16699;SDS011;8466;52.286;21.124;2022-08-19T04:07:56;41.05;;;38.28;;
16699;SDS011;8466;52.286;21.124;2022-08-19T04:10:26;38.13;;;35.38;;
16699;SDS011;8466;52.286;21.124;2022-08-19T04:12:56;37.58;;;35.05;;
16699;SDS011;8466;52.286;21.124;2022-08-19T04:15:25;35.40;;;32.67;;
16699;SDS011;8466;52.286;21.124;2022-08-19T04:17:55;35.33;;;32.92;;
16699;SDS011;8466;52.286;21.124;2022-08-19T04:20:23;41.70;;;38.85;;
16699;SDS011;8466;52.286;21.124;2022-08-19T04:22:52;50.05;;;46.95;;
16699;SDS011;8466;52.286;21.124;2022-08-19T04:25:21;43.97;;;40.92;;
16699;SDS011;8466;52.286;21.124;2022-08-19T04:27:49;40.53;;;38.00;;
16699;SDS011;8466;52.286;21.124;2022-08-19T04:30:19;48.80;;;45.47;;
16699;SDS011;8466;52.286;21.124;2022-08-19T04:32:49;48.95;;;45.65;;
16699;SDS011;8466;52.286;21.124;2022-08-19T04:35:18;41.95;;;39.15;;
16699;SDS011;8466;52.286;21.124;2022-08-19T04:37:50;51.08;;;47.95;;
16699;SDS011;8466;52.286;21.124;2022-08-19T04:40:19;60.20;;;56.47;;
16699;SDS011;8466;52.286;21.124;2022-08-19T04:43:04;60.75;;;56.90;;
16699;SDS011;8466;52.286;21.124;2022-08-19T04:45:35;69.47;;;64.93;;
16699;SDS011;8466;52.286;21.124;2022-08-19T04:48:09;70.28;;;66.07;;
16699;SDS011;8466;52.286;21.124;2022-08-19T04:50:52;97.30;;;91.57;;
16699;SDS011;8466;52.286;21.124;2022-08-19T04:53:24;34.65;;;31.58;;
16699;SDS011;8466;52.286;21.124;2022-08-19T04:56:04;31.08;;;28.88;;
16699;SDS011;8466;52.286;21.124;2022-08-19T04:58:35;32.15;;;29.88;;
16699;SDS011;8466;52.286;21.124;2022-08-19T05:01:06;28.35;;;26.52;;
16699;SDS011;8466;52.286;21.124;2022-08-19T05:03:37;25.75;;;23.92;;
16699;SDS011;8466;52.286;21.124;2022-08-19T05:06:06;72.45;;;68.18;;
16699;SDS011;8466;52.286;21.124;2022-08-19T05:08:39;63.17;;;59.42;;
16699;SDS011;8466;52.286;21.124;2022-08-19T05:11:10;60.83;;;57.15;;
16699;SDS011;8466;52.286;21.124;2022-08-19T05:13:40;65.18;;;61.20;;
16699;SDS011;8466;52.286;21.124;2022-08-19T05:16:11;64.65;;;60.55;;
16699;SDS011;8466;52.286;21.124;2022-08-19T05:18:41;60.10;;;56.33;;
16699;SDS011;8466;52.286;21.124;2022-08-19T05:21:28;80.68;;;75.38;;
16699;SDS011;8466;52.286;21.124;2022-08-19T05:24:15;86.82;;;81.30;;
16699;SDS011;8466;52.286;21.124;2022-08-19T05:26:46;97.40;;;91.60;;
16699;SDS011;8466;52.286;21.124;2022-08-19T05:29:17;102.57;;;96.57;;
16699;SDS011;8466;52.286;21.124;2022-08-19T05:31:49;98.65;;;92.82;;
16699;SDS011;8466;52.286;21.124;2022-08-19T05:34:24;93.50;;;87.95;;
16699;SDS011;8466;52.286;21.124;2022-08-19T05:36:55;100.00;;;93.95;;
16699;SDS011;8466;52.286;21.124;2022-08-19T05:39:26;100.88;;;95.00;;
16699;SDS011;8466;52.286;21.124;2022-08-19T05:41:57;112.68;;;106.40;;
16699;SDS011;8466;52.286;21.124;2022-08-19T05:44:29;122.80;;;115.55;;
16699;SDS011;8466;52.286;21.124;2022-08-19T05:47:02;123.15;;;116.13;;
16699;SDS011;8466;52.286;21.124;2022-08-19T05:49:33;120.30;;;113.20;;
16699;SDS011;8466;52.286;21.124;2022-08-19T05:52:03;112.97;;;106.38;;
16699;SDS011;8466;52.286;21.124;2022-08-19T05:54:33;127.30;;;119.90;;
16699;SDS011;8466;52.286;21.124;2022-08-19T05:57:02;117.07;;;110.32;;
16699;SDS011;8466;52.286;21.124;2022-08-19T05:59:32;543.40;;;494.98;;
16699;SDS011;8466;52.286;21.124;2022-08-19T06:02:06;400.13;;;369.13;;
16699;SDS011;8466;52.286;21.124;2022-08-19T06:04:34;151.23;;;141.98;;
16699;SDS011;8466;52.286;21.124;2022-08-19T06:07:04;140.45;;;131.95;;
16699;SDS011;8466;52.286;21.124;2022-08-19T06:09:38;132.02;;;124.45;;
16699;SDS011;8466;52.286;21.124;2022-08-19T06:12:25;116.30;;;109.30;;
16699;SDS011;8466;52.286;21.124;2022-08-19T06:14:55;127.20;;;119.65;;
16699;SDS011;8466;52.286;21.124;2022-08-19T06:17:28;133.70;;;126.22;;
16699;SDS011;8466;52.286;21.124;2022-08-19T06:19:58;135.57;;;127.95;;
16699;SDS011;8466;52.286;21.124;2022-08-19T06:22:27;140.35;;;132.10;;
16699;SDS011;8466;52.286;21.124;2022-08-19T06:24:56;139.27;;;131.68;;
16699;SDS011;8466;52.286;21.124;2022-08-19T06:27:24;140.43;;;132.52;;
16699;SDS011;8466;52.286;21.124;2022-08-19T06:29:53;140.20;;;132.07;;
16699;SDS011;8466;52.286;21.124;2022-08-19T06:32:22;138.82;;;131.15;;
16699;SDS011;8466;52.286;21.124;2022-08-19T06:34:53;127.43;;;120.40;;
16699;SDS011;8466;52.286;21.124;2022-08-19T06:37:21;142.90;;;134.93;;
16699;SDS011;8466;52.286;21.124;2022-08-19T06:39:50;130.75;;;123.43;;
16699;SDS011;8466;52.286;21.124;2022-08-19T06:42:20;645.10;;;588.75;;
16699;SDS011;8466;52.286;21.124;2022-08-19T06:44:49;207.48;;;195.10;;
16699;SDS011;8466;52.286;21.124;2022-08-19T06:47:19;130.20;;;122.68;;
16699;SDS011;8466;52.286;21.124;2022-08-19T06:49:56;130.73;;;123.13;;
16699;SDS011;8466;52.286;21.124;2022-08-19T06:52:29;125.32;;;118.25;;
16699;SDS011;8466;52.286;21.124;2022-08-19T06:55:00;120.45;;;113.78;;
16699;SDS011;8466;52.286;21.124;2022-08-19T06:57:32;108.57;;;102.72;;
16699;SDS011;8466;52.286;21.124;2022-08-19T07:00:02;115.80;;;109.43;;
16699;SDS011;8466;52.286;21.124;2022-08-19T07:02:38;124.20;;;117.38;;
16699;SDS011;8466;52.286;21.124;2022-08-19T07:05:11;106.40;;;100.63;;
16699;SDS011;8466;52.286;21.124;2022-08-19T07:07:41;127.93;;;120.80;;
16699;SDS011;8466;52.286;21.124;2022-08-19T07:10:13;116.32;;;109.75;;
16699;SDS011;8466;52.286;21.124;2022-08-19T07:12:42;138.68;;;131.13;;
16699;SDS011;8466;52.286;21.124;2022-08-19T07:15:11;147.18;;;138.65;;
16699;SDS011;8466;52.286;21.124;2022-08-19T07:17:41;143.90;;;136.20;;
16699;SDS011;8466;52.286;21.124;2022-08-19T07:20:14;143.77;;;135.60;;
16699;SDS011;8466;52.286;21.124;2022-08-19T07:22:43;362.83;;;336.30;;
16699;SDS011;8466;52.286;21.124;2022-08-19T07:25:13;180.65;;;170.38;;
16699;SDS011;8466;52.286;21.124;2022-08-19T07:27:43;184.20;;;173.95;;
16699;SDS011;8466;52.286;21.124;2022-08-19T07:30:19;170.90;;;160.82;;
16699;SDS011;8466;52.286;21.124;2022-08-19T07:32:51;270.02;;;254.38;;
16699;SDS011;8466;52.286;21.124;2022-08-19T07:35:22;181.85;;;171.32;;
16699;SDS011;8466;52.286;21.124;2022-08-19T07:37:52;188.65;;;177.20;;
16699;SDS011;8466;52.286;21.124;2022-08-19T07:40:21;189.65;;;178.93;;
16699;SDS011;8466;52.286;21.124;2022-08-19T07:42:50;162.57;;;153.02;;
16699;SDS011;8466;52.286;21.124;2022-08-19T07:45:18;151.02;;;142.18;;
16699;SDS011;8466;52.286;21.124;2022-08-19T07:47:47;143.18;;;134.57;;
16699;SDS011;8466;52.286;21.124;2022-08-19T07:50:17;169.45;;;159.20;;
16699;SDS011;8466;52.286;21.124;2022-08-19T07:52:48;140.50;;;132.02;;
16699;SDS011;8466;52.286;21.124;2022-08-19T07:55:19;151.65;;;142.75;;
16699;SDS011;8466;52.286;21.124;2022-08-19T07:58:09;141.45;;;133.20;;
16699;SDS011;8466;52.286;21.124;2022-08-19T08:00:39;149.88;;;141.55;;
16699;SDS011;8466;52.286;21.124;2022-08-19T08:03:08;141.20;;;133.20;;
16699;SDS011;8466;52.286;21.124;2022-08-19T08:05:41;139.35;;;131.43;;
16699;SDS011;8466;52.286;21.124;2022-08-19T08:08:28;142.80;;;134.57;;
16699;SDS011;8466;52.286;21.124;2022-08-19T08:11:16;139.85;;;131.82;;
16699;SDS011;8466;52.286;21.124;2022-08-19T08:13:49;126.40;;;118.47;;
16699;SDS011;8466;52.286;21.124;2022-08-19T08:16:26;52.97;;;49.53;;
16699;SDS011;8466;52.286;21.124;2022-08-19T08:18:57;44.13;;;41.13;;
16699;SDS011;8466;52.286;21.124;2022-08-19T08:21:26;41.97;;;39.17;;
16699;SDS011;8466;52.286;21.124;2022-08-19T08:23:57;48.92;;;45.70;;
16699;SDS011;8466;52.286;21.124;2022-08-19T08:26:26;63.15;;;58.90;;
16699;SDS011;8466;52.286;21.124;2022-08-19T08:28:59;49.15;;;46.05;;
16699;SDS011;8466;52.286;21.124;2022-08-19T08:31:38;49.00;;;45.92;;
16699;SDS011;8466;52.286;21.124;2022-08-19T08:34:09;34.33;;;32.03;;
16699;SDS011;8466;52.286;21.124;2022-08-19T08:36:38;38.42;;;35.65;;
16699;SDS011;8466;52.286;21.124;2022-08-19T08:39:11;40.40;;;37.35;;
16699;SDS011;8466;52.286;21.124;2022-08-19T08:41:44;384.38;;;354.02;;
16699;SDS011;8466;52.286;21.124;2022-08-19T08:44:21;94.38;;;87.88;;
16699;SDS011;8466;52.286;21.124;2022-08-19T08:46:55;73.75;;;68.93;;
16699;SDS011;8466;52.286;21.124;2022-08-19T08:49:29;62.33;;;58.08;;
16699;SDS011;8466;52.286;21.124;2022-08-19T08:52:05;60.05;;;55.92;;
16699;SDS011;8466;52.286;21.124;2022-08-19T08:54:37;65.72;;;61.30;;
16699;SDS011;8466;52.286;21.124;2022-08-19T08:57:21;51.90;;;48.22;;
16699;SDS011;8466;52.286;21.124;2022-08-19T09:00:04;54.13;;;50.60;;
16699;SDS011;8466;52.286;21.124;2022-08-19T09:02:41;60.97;;;57.08;;
16699;SDS011;8466;52.286;21.124;2022-08-19T09:05:16;57.08;;;53.25;;
16699;SDS011;8466;52.286;21.124;2022-08-19T09:07:53;55.08;;;51.70;;
16699;SDS011;8466;52.286;21.124;2022-08-19T09:10:31;60.42;;;56.30;;
16699;SDS011;8466;52.286;21.124;2022-08-19T09:13:11;68.85;;;64.30;;
16699;SDS011;8466;52.286;21.124;2022-08-19T09:15:52;70.80;;;65.88;;
16699;SDS011;8466;52.286;21.124;2022-08-19T09:18:35;64.93;;;60.90;;
16699;SDS011;8466;52.286;21.124;2022-08-19T09:21:07;72.40;;;68.00;;
16699;SDS011;8466;52.286;21.124;2022-08-19T09:23:36;65.03;;;60.78;;
16699;SDS011;8466;52.286;21.124;2022-08-19T09:26:10;73.72;;;68.82;;
16699;SDS011;8466;52.286;21.124;2022-08-19T09:28:42;37.95;;;35.13;;
16699;SDS011;8466;52.286;21.124;2022-08-19T09:31:15;56.50;;;52.75;;
16699;SDS011;8466;52.286;21.124;2022-08-19T09:33:46;69.55;;;64.78;;
16699;SDS011;8466;52.286;21.124;2022-08-19T09:36:19;64.85;;;60.63;;
16699;SDS011;8466;52.286;21.124;2022-08-19T09:39:06;50.45;;;46.85;;
16699;SDS011;8466;52.286;21.124;2022-08-19T09:41:43;62.13;;;58.22;;
16699;SDS011;8466;52.286;21.124;2022-08-19T09:44:14;45.80;;;42.42;;
16699;SDS011;8466;52.286;21.124;2022-08-19T09:46:48;57.75;;;53.90;;
16699;SDS011;8466;52.286;21.124;2022-08-19T09:49:18;66.78;;;62.33;;
16699;SDS011;8466;52.286;21.124;2022-08-19T09:51:51;80.38;;;75.32;;
16699;SDS011;8466;52.286;21.124;2022-08-19T09:54:25;74.78;;;69.82;;
16699;SDS011;8466;52.286;21.124;2022-08-19T09:56:57;80.18;;;74.55;;
16699;SDS011;8466;52.286;21.124;2022-08-19T09:59:33;404.23;;;373.65;;
16699;SDS011;8466;52.286;21.124;2022-08-19T10:02:02;213.15;;;200.10;;
16699;SDS011;8466;52.286;21.124;2022-08-19T10:04:36;133.05;;;124.75;;
16699;SDS011;8466;52.286;21.124;2022-08-19T10:07:21;105.60;;;99.18;;
16699;SDS011;8466;52.286;21.124;2022-08-19T10:10:02;87.30;;;81.78;;
16699;SDS011;8466;52.286;21.124;2022-08-19T10:12:43;66.43;;;62.33;;
16699;SDS011;8466;52.286;21.124;2022-08-19T10:15:16;60.75;;;56.42;;
16699;SDS011;8466;52.286;21.124;2022-08-19T10:17:55;69.45;;;64.95;;
16699;SDS011;8466;52.286;21.124;2022-08-19T10:20:26;66.22;;;61.72;;
16699;SDS011;8466;52.286;21.124;2022-08-19T10:22:58;60.10;;;56.03;;
16699;SDS011;8466;52.286;21.124;2022-08-19T10:25:31;49.28;;;45.92;;
16699;SDS011;8466;52.286;21.124;2022-08-19T10:28:05;80.60;;;74.70;;
16699;SDS011;8466;52.286;21.124;2022-08-19T10:30:49;72.88;;;67.70;;
16699;SDS011;8466;52.286;21.124;2022-08-19T10:33:24;95.15;;;88.85;;
16699;SDS011;8466;52.286;21.124;2022-08-19T10:36:15;59.25;;;55.25;;
16699;SDS011;8466;52.286;21.124;2022-08-19T10:38:52;61.25;;;56.70;;
16699;SDS011;8466;52.286;21.124;2022-08-19T10:41:30;66.22;;;61.78;;
16699;SDS011;8466;52.286;21.124;2022-08-19T10:44:05;68.22;;;63.35;;
16699;SDS011;8466;52.286;21.124;2022-08-19T10:46:39;62.00;;;57.80;;
16699;SDS011;8466;52.286;21.124;2022-08-19T10:49:16;67.40;;;62.70;;
16699;SDS011;8466;52.286;21.124;2022-08-19T10:51:53;300.83;;;280.92;;
16699;SDS011;8466;52.286;21.124;2022-08-19T10:54:46;85.95;;;80.13;;
16699;SDS011;8466;52.286;21.124;2022-08-19T10:57:47;70.10;;;65.53;;
16699;SDS011;8466;52.286;21.124;2022-08-19T11:00:31;65.63;;;61.42;;
16699;SDS011;8466;52.286;21.124;2022-08-19T11:02:59;71.10;;;66.28;;
16699;SDS011;8466;52.286;21.124;2022-08-19T11:05:28;74.10;;;69.45;;
16699;SDS011;8466;52.286;21.124;2022-08-19T11:08:05;125.90;;;117.57;;
16699;SDS011;8466;52.286;21.124;2022-08-19T11:10:49;107.63;;;100.63;;
16699;SDS011;8466;52.286;21.124;2022-08-19T11:13:20;81.05;;;75.90;;
16699;SDS011;8466;52.286;21.124;2022-08-19T11:15:57;93.70;;;87.50;;
16699;SDS011;8466;52.286;21.124;2022-08-19T11:18:33;73.88;;;69.07;;
16699;SDS011;8466;52.286;21.124;2022-08-19T11:21:11;78.55;;;73.45;;
16699;SDS011;8466;52.286;21.124;2022-08-19T11:23:43;79.10;;;73.78;;
16699;SDS011;8466;52.286;21.124;2022-08-19T11:26:15;70.43;;;65.90;;
16699;SDS011;8466;52.286;21.124;2022-08-19T11:28:44;70.93;;;66.00;;
16699;SDS011;8466;52.286;21.124;2022-08-19T11:31:16;64.20;;;59.85;;
16699;SDS011;8466;52.286;21.124;2022-08-19T11:33:50;61.95;;;57.65;;
16699;SDS011;8466;52.286;21.124;2022-08-19T11:36:24;93.03;;;86.85;;
16699;SDS011;8466;52.286;21.124;2022-08-19T11:38:53;86.55;;;80.95;;
16699;SDS011;8466;52.286;21.124;2022-08-19T11:41:23;92.35;;;86.45;;
16699;SDS011;8466;52.286;21.124;2022-08-19T11:43:52;100.25;;;94.25;;
16699;SDS011;8466;52.286;21.124;2022-08-19T11:46:23;92.38;;;86.78;;
16699;SDS011;8466;52.286;21.124;2022-08-19T11:48:56;79.68;;;74.15;;
16699;SDS011;8466;52.286;21.124;2022-08-19T11:51:30;94.22;;;88.43;;
16699;SDS011;8466;52.286;21.124;2022-08-19T11:53:59;102.18;;;95.75;;
16699;SDS011;8466;52.286;21.124;2022-08-19T11:56:28;100.05;;;93.72;;
16699;SDS011;8466;52.286;21.124;2022-08-19T11:58:57;115.45;;;108.03;;
16699;SDS011;8466;52.286;21.124;2022-08-19T12:01:32;192.57;;;180.57;;
16699;SDS011;8466;52.286;21.124;2022-08-19T12:04:01;137.27;;;128.82;;
16699;SDS011;8466;52.286;21.124;2022-08-19T12:06:31;113.00;;;105.97;;
16699;SDS011;8466;52.286;21.124;2022-08-19T12:09:03;110.45;;;103.80;;
16699;SDS011;8466;52.286;21.124;2022-08-19T12:11:33;122.63;;;115.45;;
16699;SDS011;8466;52.286;21.124;2022-08-19T12:14:03;123.13;;;115.85;;
16699;SDS011;8466;52.286;21.124;2022-08-19T12:16:34;131.70;;;123.53;;
16699;SDS011;8466;52.286;21.124;2022-08-19T12:19:14;116.63;;;109.53;;
16699;SDS011;8466;52.286;21.124;2022-08-19T12:21:48;113.03;;;105.90;;
16699;SDS011;8466;52.286;21.124;2022-08-19T12:24:17;129.05;;;121.10;;
16699;SDS011;8466;52.286;21.124;2022-08-19T12:26:49;142.07;;;133.65;;
16699;SDS011;8466;52.286;21.124;2022-08-19T12:29:20;117.75;;;110.28;;
16699;SDS011;8466;52.286;21.124;2022-08-19T12:31:58;125.05;;;117.30;;
16699;SDS011;8466;52.286;21.124;2022-08-19T12:34:29;128.88;;;120.75;;
16699;SDS011;8466;52.286;21.124;2022-08-19T12:37:00;141.75;;;133.02;;
16699;SDS011;8466;52.286;21.124;2022-08-19T12:39:33;122.18;;;114.75;;
16699;SDS011;8466;52.286;21.124;2022-08-19T12:42:03;128.43;;;120.65;;
16699;SDS011;8466;52.286;21.124;2022-08-19T12:44:34;133.60;;;125.03;;
16699;SDS011;8466;52.286;21.124;2022-08-19T12:47:09;128.80;;;120.75;;
16699;SDS011;8466;52.286;21.124;2022-08-19T12:49:42;135.63;;;127.10;;
16699;SDS011;8466;52.286;21.124;2022-08-19T12:52:20;118.05;;;109.95;;
16699;SDS011;8466;52.286;21.124;2022-08-19T12:54:49;147.15;;;138.13;;
16699;SDS011;8466;52.286;21.124;2022-08-19T12:57:20;152.63;;;143.00;;
16699;SDS011;8466;52.286;21.124;2022-08-19T12:59:58;141.85;;;133.05;;
16699;SDS011;8466;52.286;21.124;2022-08-19T13:02:32;138.00;;;129.43;;
16699;SDS011;8466;52.286;21.124;2022-08-19T13:05:05;154.95;;;145.27;;
16699;SDS011;8466;52.286;21.124;2022-08-19T13:07:36;170.95;;;159.90;;
16699;SDS011;8466;52.286;21.124;2022-08-19T13:10:08;162.85;;;152.60;;
16699;SDS011;8466;52.286;21.124;2022-08-19T13:12:39;169.00;;;158.40;;
16699;SDS011;8466;52.286;21.124;2022-08-19T13:15:08;154.88;;;145.32;;
16699;SDS011;8466;52.286;21.124;2022-08-19T13:17:42;180.30;;;168.80;;
16699;SDS011;8466;52.286;21.124;2022-08-19T13:20:10;161.55;;;151.27;;
16699;SDS011;8466;52.286;21.124;2022-08-19T13:22:39;149.35;;;139.68;;
16699;SDS011;8466;52.286;21.124;2022-08-19T13:25:08;175.05;;;164.07;;
16699;SDS011;8466;52.286;21.124;2022-08-19T13:27:38;177.65;;;166.52;;
16699;SDS011;8466;52.286;21.124;2022-08-19T13:30:08;186.13;;;174.90;;
16699;SDS011;8466;52.286;21.124;2022-08-19T13:32:57;168.52;;;158.00;;
16699;SDS011;8466;52.286;21.124;2022-08-19T13:35:43;179.38;;;167.65;;
16699;SDS011;8466;52.286;21.124;2022-08-19T13:38:18;181.50;;;170.20;;
16699;SDS011;8466;52.286;21.124;2022-08-19T13:40:48;186.60;;;174.60;;
16699;SDS011;8466;52.286;21.124;2022-08-19T13:43:19;182.57;;;170.68;;
16699;SDS011;8466;52.286;21.124;2022-08-19T13:45:49;183.45;;;171.63;;
16699;SDS011;8466;52.286;21.124;2022-08-19T13:48:21;182.68;;;170.52;;
16699;SDS011;8466;52.286;21.124;2022-08-19T13:50:53;207.07;;;193.40;;
16699;SDS011;8466;52.286;21.124;2022-08-19T13:53:24;186.35;;;174.27;;
16699;SDS011;8466;52.286;21.124;2022-08-19T13:56:00;183.63;;;171.05;;
16699;SDS011;8466;52.286;21.124;2022-08-19T13:58:34;200.95;;;188.60;;
16699;SDS011;8466;52.286;21.124;2022-08-19T14:01:05;183.95;;;172.15;;
16699;SDS011;8466;52.286;21.124;2022-08-19T14:03:38;175.10;;;164.00;;
16699;SDS011;8466;52.286;21.124;2022-08-19T14:06:15;177.68;;;166.43;;
16699;SDS011;8466;52.286;21.124;2022-08-19T14:08:47;191.43;;;179.43;;
16699;SDS011;8466;52.286;21.124;2022-08-19T14:11:18;186.43;;;174.35;;
16699;SDS011;8466;52.286;21.124;2022-08-19T14:13:50;188.48;;;175.63;;
16699;SDS011;8466;52.286;21.124;2022-08-19T14:16:19;188.82;;;176.60;;
16699;SDS011;8466;52.286;21.124;2022-08-19T14:18:50;177.60;;;166.38;;
16699;SDS011;8466;52.286;21.124;2022-08-19T14:21:20;173.10;;;161.93;;
16699;SDS011;8466;52.286;21.124;2022-08-19T14:23:53;179.00;;;167.35;;
16699;SDS011;8466;52.286;21.124;2022-08-19T14:26:23;197.13;;;184.68;;
16699;SDS011;8466;52.286;21.124;2022-08-19T14:28:53;207.90;;;194.43;;
16699;SDS011;8466;52.286;21.124;2022-08-19T14:31:25;330.02;;;306.35;;
16699;SDS011;8466;52.286;21.124;2022-08-19T14:34:00;211.35;;;197.80;;
16699;SDS011;8466;52.286;21.124;2022-08-19T14:36:33;197.93;;;185.32;;
16699;SDS011;8466;52.286;21.124;2022-08-19T14:39:06;198.02;;;185.63;;
16699;SDS011;8466;52.286;21.124;2022-08-19T14:41:36;197.32;;;184.90;;
16699;SDS011;8466;52.286;21.124;2022-08-19T14:44:11;209.10;;;195.95;;